sensor_id;sensor_type;location;lat;lon;timestamp;pressure;altitude;pressure_sealevel;temperature
51149;BMP280;37210;50.058;8.688;2023-08-07T00:02:20;99797.16;;;16.34
51149;BMP280;37210;50.058;8.688;2023-08-07T00:04:48;99817.06;;;16.44
51149;BMP280;37210;50.058;8.688;2023-08-07T00:07:16;99654.28;;;15.62
51149;BMP280;37210;50.058;8.688;2023-08-07T00:09:44;99775.06;;;16.37
51149;BMP280;37210;50.058;8.688;2023-08-07T00:12:15;99741.69;;;16.07
51149;BMP280;37210;50.058;8.688;2023-08-07T00:14:43;99738.88;;;15.83
51149;BMP280;37210;50.058;8.688;2023-08-07T00:17:11;99771.44;;;16.12
51149;BMP280;37210;50.058;8.688;2023-08-07T00:19:40;99737.06;;;15.85
51149;BMP280;37210;50.058;8.688;2023-08-07T00:22:08;99794.06;;;16.20
51149;BMP280;37210;50.058;8.688;2023-08-07T00:24:36;99812.66;;;16.45
51149;BMP280;37210;50.058;8.688;2023-08-07T00:27:04;99764.94;;;15.94
51149;BMP280;37210;50.058;8.688;2023-08-07T00:29:34;99723.91;;;15.84
51149;BMP280;37210;50.058;8.688;2023-08-07T00:32:02;99771.31;;;16.16
51149;BMP280;37210;50.058;8.688;2023-08-07T00:34:31;99781.69;;;16.22
51149;BMP280;37210;50.058;8.688;2023-08-07T00:36:58;99783.88;;;16.08
51149;BMP280;37210;50.058;8.688;2023-08-07T00:39:27;99790.56;;;16.20
51149;BMP280;37210;50.058;8.688;2023-08-07T00:41:55;99782.00;;;16.12
51149;BMP280;37210;50.058;8.688;2023-08-07T00:44:23;99724.03;;;15.81
51149;BMP280;37210;50.058;8.688;2023-08-07T00:46:52;99820.41;;;16.51
51149;BMP280;37210;50.058;8.688;2023-08-07T00:49:21;99793.25;;;16.17
51149;BMP280;37210;50.058;8.688;2023-08-07T00:51:52;99775.91;;;16.10
51149;BMP280;37210;50.058;8.688;2023-08-07T00:54:20;99760.63;;;15.91
51149;BMP280;37210;50.058;8.688;2023-08-07T00:56:49;99780.03;;;15.89
51149;BMP280;37210;50.058;8.688;2023-08-07T00:59:18;99787.66;;;15.99
51149;BMP280;37210;50.058;8.688;2023-08-07T01:01:49;99676.75;;;15.44
51149;BMP280;37210;50.058;8.688;2023-08-07T01:04:18;99799.66;;;16.10
51149;BMP280;37210;50.058;8.688;2023-08-07T01:06:47;99790.41;;;15.95
51149;BMP280;37210;50.058;8.688;2023-08-07T01:09:17;99707.47;;;15.13
51149;BMP280;37210;50.058;8.688;2023-08-07T01:11:48;99833.00;;;16.12
51149;BMP280;37210;50.058;8.688;2023-08-07T01:14:26;99817.00;;;16.18
51149;BMP280;37210;50.058;8.688;2023-08-07T01:17:02;99819.50;;;16.23
51149;BMP280;37210;50.058;8.688;2023-08-07T01:19:35;99794.78;;;15.65
51149;BMP280;37210;50.058;8.688;2023-08-07T01:22:08;99812.09;;;16.05
51149;BMP280;37210;50.058;8.688;2023-08-07T01:24:40;99834.50;;;15.91
51149;BMP280;37210;50.058;8.688;2023-08-07T01:30:11;99805.66;;;16.15
51149;BMP280;37210;50.058;8.688;2023-08-07T01:32:49;99707.47;;;15.13
51149;BMP280;37210;50.058;8.688;2023-08-07T01:35:30;99771.16;;;15.61
51149;BMP280;37210;50.058;8.688;2023-08-07T01:38:07;99713.78;;;15.38
51149;BMP280;37210;50.058;8.688;2023-08-07T01:40:37;99736.34;;;15.50
51149;BMP280;37210;50.058;8.688;2023-08-07T01:43:06;99718.53;;;15.26
51149;BMP280;37210;50.058;8.688;2023-08-07T01:45:35;99711.84;;;15.14
51149;BMP280;37210;50.058;8.688;2023-08-07T01:48:03;99832.75;;;15.90
51149;BMP280;37210;50.058;8.688;2023-08-07T01:50:31;99826.50;;;15.62
51149;BMP280;37210;50.058;8.688;2023-08-07T01:52:59;99768.00;;;15.48
51149;BMP280;37210;50.058;8.688;2023-08-07T01:55:30;99827.72;;;15.49
51149;BMP280;37210;50.058;8.688;2023-08-07T01:58:02;99813.50;;;15.55
51149;BMP280;37210;50.058;8.688;2023-08-07T02:00:30;99726.94;;;15.07
51149;BMP280;37210;50.058;8.688;2023-08-07T02:02:58;99820.41;;;15.60
51149;BMP280;37210;50.058;8.688;2023-08-07T02:05:28;99832.38;;;15.72
51149;BMP280;37210;50.058;8.688;2023-08-07T02:07:55;99759.38;;;15.09
51149;BMP280;37210;50.058;8.688;2023-08-07T02:10:23;99711.03;;;15.12
51149;BMP280;37210;50.058;8.688;2023-08-07T02:12:52;99675.81;;;14.82
51149;BMP280;37210;50.058;8.688;2023-08-07T02:15:20;99847.97;;;15.81
51149;BMP280;37210;50.058;8.688;2023-08-07T02:17:50;99754.81;;;15.16
51149;BMP280;37210;50.058;8.688;2023-08-07T02:20:21;99781.59;;;15.33
51149;BMP280;37210;50.058;8.688;2023-08-07T02:22:49;99762.28;;;15.31
51149;BMP280;37210;50.058;8.688;2023-08-07T02:25:17;99855.38;;;15.67
51149;BMP280;37210;50.058;8.688;2023-08-07T02:27:47;99774.78;;;15.25
51149;BMP280;37210;50.058;8.688;2023-08-07T02:30:18;99849.09;;;15.72
51149;BMP280;37210;50.058;8.688;2023-08-07T02:32:47;99840.38;;;15.35
51149;BMP280;37210;50.058;8.688;2023-08-07T02:35:15;99858.69;;;15.40
51149;BMP280;37210;50.058;8.688;2023-08-07T02:37:43;99771.50;;;15.15
51149;BMP280;37210;50.058;8.688;2023-08-07T02:40:11;99718.66;;;14.89
51149;BMP280;37210;50.058;8.688;2023-08-07T02:42:42;99767.97;;;15.16
51149;BMP280;37210;50.058;8.688;2023-08-07T02:45:09;99786.41;;;15.16
51149;BMP280;37210;50.058;8.688;2023-08-07T02:47:38;99798.94;;;15.40
51149;BMP280;37210;50.058;8.688;2023-08-07T02:50:07;99858.75;;;15.72
51149;BMP280;37210;50.058;8.688;2023-08-07T02:52:35;99855.19;;;15.74
51149;BMP280;37210;50.058;8.688;2023-08-07T02:55:03;99845.75;;;15.66
51149;BMP280;37210;50.058;8.688;2023-08-07T02:57:31;99820.44;;;15.59
51149;BMP280;37210;50.058;8.688;2023-08-07T02:59:59;99753.63;;;14.94
51149;BMP280;37210;50.058;8.688;2023-08-07T03:02:26;99840.66;;;15.23
51149;BMP280;37210;50.058;8.688;2023-08-07T03:04:56;99730.34;;;14.77
51149;BMP280;37210;50.058;8.688;2023-08-07T03:07:23;99796.28;;;15.43
51149;BMP280;37210;50.058;8.688;2023-08-07T03:09:54;99762.28;;;15.31
51149;BMP280;37210;50.058;8.688;2023-08-07T03:12:22;99778.97;;;15.32
51149;BMP280;37210;50.058;8.688;2023-08-07T03:14:49;99810.19;;;15.48
51149;BMP280;37210;50.058;8.688;2023-08-07T03:17:17;99757.34;;;15.20
51149;BMP280;37210;50.058;8.688;2023-08-07T03:19:46;99843.94;;;15.68
51149;BMP280;37210;50.058;8.688;2023-08-07T03:22:18;99745.44;;;15.04
51149;BMP280;37210;50.058;8.688;2023-08-07T03:24:46;99684.94;;;14.69
51149;BMP280;37210;50.058;8.688;2023-08-07T03:27:14;99831.63;;;15.68
51149;BMP280;37210;50.058;8.688;2023-08-07T03:29:42;99803.38;;;15.38
51149;BMP280;37210;50.058;8.688;2023-08-07T03:32:10;99768.44;;;15.32
51149;BMP280;37210;50.058;8.688;2023-08-07T03:34:38;99751.91;;;14.93
51149;BMP280;37210;50.058;8.688;2023-08-07T03:37:07;99743.69;;;15.05
51149;BMP280;37210;50.058;8.688;2023-08-07T03:39:36;99838.00;;;15.60
51149;BMP280;37210;50.058;8.688;2023-08-07T03:42:06;99783.94;;;15.10
51149;BMP280;37210;50.058;8.688;2023-08-07T03:44:34;99812.13;;;15.40
51149;BMP280;37210;50.058;8.688;2023-08-07T03:47:02;99848.81;;;15.49
51149;BMP280;37210;50.058;8.688;2023-08-07T03:49:30;99871.19;;;15.67
51149;BMP280;37210;50.058;8.688;2023-08-07T03:51:58;99776.50;;;15.26
51149;BMP280;37210;50.058;8.688;2023-08-07T03:54:26;99824.41;;;15.43
51149;BMP280;37210;50.058;8.688;2023-08-07T03:56:55;99871.34;;;15.62
51149;BMP280;37210;50.058;8.688;2023-08-07T03:59:23;99757.00;;;14.99
51149;BMP280;37210;50.058;8.688;2023-08-07T04:01:51;99769.41;;;15.28
51149;BMP280;37210;50.058;8.688;2023-08-07T04:04:18;99738.41;;;15.05
51149;BMP280;37210;50.058;8.688;2023-08-07T04:06:46;99730.13;;;14.86
51149;BMP280;37210;50.058;8.688;2023-08-07T04:09:14;99873.63;;;15.74
51149;BMP280;37210;50.058;8.688;2023-08-07T04:11:43;99846.78;;;15.59
51149;BMP280;37210;50.058;8.688;2023-08-07T04:14:12;99729.19;;;14.87
51149;BMP280;37210;50.058;8.688;2023-08-07T04:16:40;99778.47;;;15.17
51149;BMP280;37210;50.058;8.688;2023-08-07T04:19:08;99823.16;;;15.22
51149;BMP280;37210;50.058;8.688;2023-08-07T04:21:35;99756.22;;;14.95
51149;BMP280;37210;50.058;8.688;2023-08-07T04:24:03;99846.53;;;15.34
51149;BMP280;37210;50.058;8.688;2023-08-07T04:26:36;99768.75;;;14.86
51149;BMP280;37210;50.058;8.688;2023-08-07T04:29:05;99731.78;;;14.90
51149;BMP280;37210;50.058;8.688;2023-08-07T04:31:34;99780.44;;;15.09
51149;BMP280;37210;50.058;8.688;2023-08-07T04:34:02;99816.22;;;15.18
51149;BMP280;37210;50.058;8.688;2023-08-07T04:36:30;99822.41;;;15.51
51149;BMP280;37210;50.058;8.688;2023-08-07T04:38:59;99799.94;;;15.02
51149;BMP280;37210;50.058;8.688;2023-08-07T04:41:27;99861.31;;;15.41
51149;BMP280;37210;50.058;8.688;2023-08-07T04:43:55;99894.72;;;15.74
51149;BMP280;37210;50.058;8.688;2023-08-07T04:46:22;99900.56;;;15.53
51149;BMP280;37210;50.058;8.688;2023-08-07T04:48:52;99833.53;;;15.28
51149;BMP280;37210;50.058;8.688;2023-08-07T04:51:20;99765.53;;;14.75
51149;BMP280;37210;50.058;8.688;2023-08-07T04:53:48;99882.38;;;15.43
51149;BMP280;37210;50.058;8.688;2023-08-07T04:56:20;99761.31;;;14.68
51149;BMP280;37210;50.058;8.688;2023-08-07T04:59:10;99879.84;;;15.37
51149;BMP280;37210;50.058;8.688;2023-08-07T05:01:41;99916.00;;;15.67
51149;BMP280;37210;50.058;8.688;2023-08-07T05:04:10;99791.88;;;15.08
51149;BMP280;37210;50.058;8.688;2023-08-07T05:06:37;99914.72;;;15.81
51149;BMP280;37210;50.058;8.688;2023-08-07T05:09:05;99853.00;;;15.56
51149;BMP280;37210;50.058;8.688;2023-08-07T05:11:35;99911.91;;;15.89
51149;BMP280;37210;50.058;8.688;2023-08-07T05:14:03;99909.78;;;15.69
51149;BMP280;37210;50.058;8.688;2023-08-07T05:16:30;99855.44;;;15.30
51149;BMP280;37210;50.058;8.688;2023-08-07T05:18:58;99863.22;;;15.35
51149;BMP280;37210;50.058;8.688;2023-08-07T05:21:27;99859.38;;;15.49
51149;BMP280;37210;50.058;8.688;2023-08-07T05:23:58;99925.00;;;15.93
51149;BMP280;37210;50.058;8.688;2023-08-07T05:26:25;99913.50;;;15.62
51149;BMP280;37210;50.058;8.688;2023-08-07T05:28:54;99923.25;;;15.92
51149;BMP280;37210;50.058;8.688;2023-08-07T05:31:23;99929.38;;;15.93
51149;BMP280;37210;50.058;8.688;2023-08-07T05:33:51;99876.25;;;15.41
51149;BMP280;37210;50.058;8.688;2023-08-07T05:36:18;99934.84;;;15.85
51149;BMP280;37210;50.058;8.688;2023-08-07T05:38:47;99940.81;;;15.93
51149;BMP280;37210;50.058;8.688;2023-08-07T05:41:15;99890.22;;;15.44
51149;BMP280;37210;50.058;8.688;2023-08-07T05:43:42;99940.44;;;15.75
51149;BMP280;37210;50.058;8.688;2023-08-07T05:46:10;99942.53;;;15.94
51149;BMP280;37210;50.058;8.688;2023-08-07T05:48:37;99945.69;;;15.75
51149;BMP280;37210;50.058;8.688;2023-08-07T05:51:05;99944.38;;;15.91
51149;BMP280;37210;50.058;8.688;2023-08-07T05:53:34;99933.38;;;16.08
51149;BMP280;37210;50.058;8.688;2023-08-07T05:56:03;99943.22;;;16.01
51149;BMP280;37210;50.058;8.688;2023-08-07T05:58:31;99943.22;;;16.01
51149;BMP280;37210;50.058;8.688;2023-08-07T06:00:58;99939.44;;;16.11
51149;BMP280;37210;50.058;8.688;2023-08-07T06:03:26;99933.75;;;15.94
51149;BMP280;37210;50.058;8.688;2023-08-07T06:05:54;99927.75;;;15.87
51149;BMP280;37210;50.058;8.688;2023-08-07T06:08:21;99953.13;;;15.93
51149;BMP280;37210;50.058;8.688;2023-08-07T06:10:49;99945.44;;;15.84
51149;BMP280;37210;50.058;8.688;2023-08-07T06:13:17;99924.00;;;15.64
51149;BMP280;37210;50.058;8.688;2023-08-07T06:15:45;99945.97;;;15.64
51149;BMP280;37210;50.058;8.688;2023-08-07T06:18:12;99957.34;;;15.65
51149;BMP280;37210;50.058;8.688;2023-08-07T06:20:39;99954.09;;;15.55
51149;BMP280;37210;50.058;8.688;2023-08-07T06:23:07;99959.16;;;15.63
51149;BMP280;37210;50.058;8.688;2023-08-07T06:25:34;99965.50;;;15.91
51149;BMP280;37210;50.058;8.688;2023-08-07T06:28:01;99959.16;;;15.63
51149;BMP280;37210;50.058;8.688;2023-08-07T06:30:32;99971.09;;;15.77
51149;BMP280;37210;50.058;8.688;2023-08-07T06:32:59;99922.78;;;15.43
51149;BMP280;37210;50.058;8.688;2023-08-07T06:35:26;99957.75;;;15.83
51149;BMP280;37210;50.058;8.688;2023-08-07T06:37:54;99971.75;;;15.87
51149;BMP280;37210;50.058;8.688;2023-08-07T06:40:22;99971.47;;;15.97
51149;BMP280;37210;50.058;8.688;2023-08-07T06:42:49;99971.66;;;15.90
51149;BMP280;37210;50.058;8.688;2023-08-07T06:45:17;99974.00;;;16.00
51149;BMP280;37210;50.058;8.688;2023-08-07T06:47:45;99927.41;;;15.67
51149;BMP280;37210;50.058;8.688;2023-08-07T06:50:13;99967.63;;;15.75
51149;BMP280;37210;50.058;8.688;2023-08-07T06:52:41;99978.25;;;16.08
51149;BMP280;37210;50.058;8.688;2023-08-07T06:55:08;99926.00;;;15.54
51149;BMP280;37210;50.058;8.688;2023-08-07T06:57:36;99987.31;;;15.96
51149;BMP280;37210;50.058;8.688;2023-08-07T07:00:04;99986.09;;;15.77
51149;BMP280;37210;50.058;8.688;2023-08-07T07:02:32;99963.19;;;15.77
51149;BMP280;37210;50.058;8.688;2023-08-07T07:05:01;99994.13;;;16.05
51149;BMP280;37210;50.058;8.688;2023-08-07T07:07:29;100001.13;;;16.07
51149;BMP280;37210;50.058;8.688;2023-08-07T07:09:56;100000.88;;;15.82
51149;BMP280;37210;50.058;8.688;2023-08-07T07:12:26;99999.41;;;16.06
51149;BMP280;37210;50.058;8.688;2023-08-07T07:14:54;99998.69;;;15.98
51149;BMP280;37210;50.058;8.688;2023-08-07T07:17:21;99901.84;;;15.36
51149;BMP280;37210;50.058;8.688;2023-08-07T07:19:49;100013.13;;;16.19
51149;BMP280;37210;50.058;8.688;2023-08-07T07:22:17;99973.84;;;16.08
51149;BMP280;37210;50.058;8.688;2023-08-07T07:24:45;100011.44;;;16.16
51149;BMP280;37210;50.058;8.688;2023-08-07T07:27:12;100000.81;;;16.18
51149;BMP280;37210;50.058;8.688;2023-08-07T07:29:39;100018.97;;;16.30
51149;BMP280;37210;50.058;8.688;2023-08-07T07:32:07;100012.69;;;16.35
51149;BMP280;37210;50.058;8.688;2023-08-07T07:34:35;100009.34;;;16.27
51149;BMP280;37210;50.058;8.688;2023-08-07T07:37:02;99940.81;;;15.58
51149;BMP280;37210;50.058;8.688;2023-08-07T07:39:32;100023.69;;;16.19
51149;BMP280;37210;50.058;8.688;2023-08-07T07:42:01;100021.44;;;16.04
51149;BMP280;37210;50.058;8.688;2023-08-07T07:44:29;100026.59;;;16.40
51149;BMP280;37210;50.058;8.688;2023-08-07T07:47:00;100031.06;;;16.38
51149;BMP280;37210;50.058;8.688;2023-08-07T07:49:27;100041.22;;;16.20
51149;BMP280;37210;50.058;8.688;2023-08-07T07:51:54;100044.81;;;16.17
51149;BMP280;37210;50.058;8.688;2023-08-07T07:54:22;100009.97;;;16.05
51149;BMP280;37210;50.058;8.688;2023-08-07T07:56:51;100031.28;;;16.31
51149;BMP280;37210;50.058;8.688;2023-08-07T07:59:18;100056.63;;;16.36
51149;BMP280;37210;50.058;8.688;2023-08-07T08:01:46;100063.25;;;16.52
51149;BMP280;37210;50.058;8.688;2023-08-07T08:04:13;100063.50;;;16.43
51149;BMP280;37210;50.058;8.688;2023-08-07T08:06:41;100060.25;;;16.32
51149;BMP280;37210;50.058;8.688;2023-08-07T08:09:08;100056.69;;;16.35
51149;BMP280;37210;50.058;8.688;2023-08-07T08:11:36;100070.78;;;16.34
51149;BMP280;37210;50.058;8.688;2023-08-07T08:14:04;100071.72;;;16.65
51149;BMP280;37210;50.058;8.688;2023-08-07T08:16:32;100079.81;;;16.59
51149;BMP280;37210;50.058;8.688;2023-08-07T08:18:59;100082.38;;;16.62
51149;BMP280;37210;50.058;8.688;2023-08-07T08:21:28;100080.34;;;16.71
51149;BMP280;37210;50.058;8.688;2023-08-07T08:23:56;100062.53;;;16.46
51149;BMP280;37210;50.058;8.688;2023-08-07T08:26:25;100076.16;;;16.31
51149;BMP280;37210;50.058;8.688;2023-08-07T08:28:52;100087.94;;;16.51
51149;BMP280;37210;50.058;8.688;2023-08-07T08:31:21;100082.34;;;16.63
51149;BMP280;37210;50.058;8.688;2023-08-07T08:33:50;100082.38;;;16.62
51149;BMP280;37210;50.058;8.688;2023-08-07T08:36:17;100081.41;;;16.31
51149;BMP280;37210;50.058;8.688;2023-08-07T08:38:44;100083.97;;;16.34
51149;BMP280;37210;50.058;8.688;2023-08-07T08:41:14;100063.97;;;16.59
51149;BMP280;37210;50.058;8.688;2023-08-07T08:43:45;100077.81;;;16.67
51149;BMP280;37210;50.058;8.688;2023-08-07T08:46:14;100089.97;;;16.40
51149;BMP280;37210;50.058;8.688;2023-08-07T08:48:49;100085.78;;;16.65
51149;BMP280;37210;50.058;8.688;2023-08-07T08:51:19;100086.31;;;16.44
51149;BMP280;37210;50.058;8.688;2023-08-07T08:53:47;100090.84;;;16.73
51149;BMP280;37210;50.058;8.688;2023-08-07T08:56:15;100091.59;;;16.44
51149;BMP280;37210;50.058;8.688;2023-08-07T08:58:44;100095.03;;;16.82
51149;BMP280;37210;50.058;8.688;2023-08-07T09:01:12;100091.59;;;16.78
51149;BMP280;37210;50.058;8.688;2023-08-07T09:03:40;100097.13;;;16.70
51149;BMP280;37210;50.058;8.688;2023-08-07T09:06:09;100099.41;;;16.83
51149;BMP280;37210;50.058;8.688;2023-08-07T09:08:38;100097.00;;;16.75
51149;BMP280;37210;50.058;8.688;2023-08-07T09:11:10;100101.13;;;16.84
51149;BMP280;37210;50.058;8.688;2023-08-07T09:13:40;100093.19;;;16.85
51149;BMP280;37210;50.058;8.688;2023-08-07T09:16:12;100105.53;;;16.85
51149;BMP280;37210;50.058;8.688;2023-08-07T09:18:40;100098.59;;;16.81
51149;BMP280;37210;50.058;8.688;2023-08-07T09:21:09;100108.97;;;16.87
51149;BMP280;37210;50.058;8.688;2023-08-07T09:23:37;100110.34;;;17.01
51149;BMP280;37210;50.058;8.688;2023-08-07T09:26:05;100042.44;;;16.74
51149;BMP280;37210;50.058;8.688;2023-08-07T09:28:33;100113.75;;;17.35
51149;BMP280;37210;50.058;8.688;2023-08-07T09:31:00;100115.53;;;17.35
51149;BMP280;37210;50.058;8.688;2023-08-07T09:33:28;100119.47;;;17.20
51149;BMP280;37210;50.058;8.688;2023-08-07T09:35:57;100122.34;;;17.42
51149;BMP280;37210;50.058;8.688;2023-08-07T09:38:29;100117.03;;;17.13
51149;BMP280;37210;50.058;8.688;2023-08-07T09:40:58;100127.13;;;17.29
51149;BMP280;37210;50.058;8.688;2023-08-07T09:43:26;100081.63;;;16.88
51149;BMP280;37210;50.058;8.688;2023-08-07T09:46:02;100144.78;;;17.29
51149;BMP280;37210;50.058;8.688;2023-08-07T09:48:30;100147.19;;;17.36
51149;BMP280;37210;50.058;8.688;2023-08-07T09:51:00;100143.47;;;17.43
51149;BMP280;37210;50.058;8.688;2023-08-07T09:53:30;100153.66;;;17.26
51149;BMP280;37210;50.058;8.688;2023-08-07T09:55:58;100153.22;;;17.11
51149;BMP280;37210;50.058;8.688;2023-08-07T09:58:28;100153.13;;;17.44
51149;BMP280;37210;50.058;8.688;2023-08-07T10:00:58;100141.00;;;17.37
51149;BMP280;37210;50.058;8.688;2023-08-07T10:03:27;100157.78;;;17.36
51149;BMP280;37210;50.058;8.688;2023-08-07T10:05:56;100147.09;;;17.10
51149;BMP280;37210;50.058;8.688;2023-08-07T10:08:25;100147.97;;;17.09
51149;BMP280;37210;50.058;8.688;2023-08-07T10:10:53;100168.78;;;17.21
51149;BMP280;37210;50.058;8.688;2023-08-07T10:13:22;100159.78;;;17.28
51149;BMP280;37210;50.058;8.688;2023-08-07T10:15:50;100168.53;;;17.61
51149;BMP280;37210;50.058;8.688;2023-08-07T10:18:18;100120.16;;;17.27
51149;BMP280;37210;50.058;8.688;2023-08-07T10:20:47;100148.97;;;17.36
51149;BMP280;37210;50.058;8.688;2023-08-07T10:23:15;100075.97;;;17.01
51149;BMP280;37210;50.058;8.688;2023-08-07T10:25:45;100158.75;;;17.65
51149;BMP280;37210;50.058;8.688;2023-08-07T10:28:18;100176.25;;;17.69
51149;BMP280;37210;50.058;8.688;2023-08-07T10:30:47;100180.88;;;17.30
51149;BMP280;37210;50.058;8.688;2023-08-07T10:33:16;100132.25;;;17.05
51149;BMP280;37210;50.058;8.688;2023-08-07T10:35:47;100165.81;;;17.33
51149;BMP280;37210;50.058;8.688;2023-08-07T10:38:18;100182.88;;;17.52
51149;BMP280;37210;50.058;8.688;2023-08-07T10:40:58;100167.16;;;17.46
51149;BMP280;37210;50.058;8.688;2023-08-07T10:43:29;100178.97;;;17.35
51149;BMP280;37210;50.058;8.688;2023-08-07T10:46:03;100191.19;;;17.70
51149;BMP280;37210;50.058;8.688;2023-08-07T10:48:38;100195.78;;;17.63
51149;BMP280;37210;50.058;8.688;2023-08-07T10:51:07;100201.78;;;17.39
51149;BMP280;37210;50.058;8.688;2023-08-07T10:53:35;100194.78;;;17.69
51149;BMP280;37210;50.058;8.688;2023-08-07T10:56:06;100195.84;;;17.29
51149;BMP280;37210;50.058;8.688;2023-08-07T10:58:38;100204.84;;;17.24
51149;BMP280;37210;50.058;8.688;2023-08-07T11:01:16;100205.19;;;17.42
51149;BMP280;37210;50.058;8.688;2023-08-07T11:03:45;100204.28;;;17.43
51149;BMP280;37210;50.058;8.688;2023-08-07T11:06:15;100106.25;;;17.20
51149;BMP280;37210;50.058;8.688;2023-08-07T11:08:43;100201.56;;;17.77
51149;BMP280;37210;50.058;8.688;2023-08-07T11:11:11;100123.72;;;16.95
51149;BMP280;37210;50.058;8.688;2023-08-07T11:13:39;100208.53;;;17.49
51149;BMP280;37210;50.058;8.688;2023-08-07T11:16:07;100209.38;;;17.51
51149;BMP280;37210;50.058;8.688;2023-08-07T11:18:34;100147.19;;;17.36
51149;BMP280;37210;50.058;8.688;2023-08-07T11:21:04;100167.59;;;17.31
51149;BMP280;37210;50.058;8.688;2023-08-07T11:23:32;100209.84;;;17.65
51149;BMP280;37210;50.058;8.688;2023-08-07T11:25:59;100212.31;;;17.71
51149;BMP280;37210;50.058;8.688;2023-08-07T11:28:28;100216.47;;;17.80
51149;BMP280;37210;50.058;8.688;2023-08-07T11:30:57;100207.50;;;17.85
51149;BMP280;37210;50.058;8.688;2023-08-07T11:33:26;100207.88;;;18.01
51149;BMP280;37210;50.058;8.688;2023-08-07T11:35:55;100210.81;;;17.92
51149;BMP280;37210;50.058;8.688;2023-08-07T11:38:30;100208.88;;;17.97
51149;BMP280;37210;50.058;8.688;2023-08-07T11:40:59;100202.69;;;17.69
51149;BMP280;37210;50.058;8.688;2023-08-07T11:43:28;100199.69;;;17.81
51149;BMP280;37210;50.058;8.688;2023-08-07T11:45:59;100218.84;;;17.60
51149;BMP280;37210;50.058;8.688;2023-08-07T11:48:29;100223.50;;;17.81
51149;BMP280;37210;50.058;8.688;2023-08-07T11:50:58;100210.59;;;17.70
51149;BMP280;37210;50.058;8.688;2023-08-07T11:53:28;100209.75;;;17.68
51149;BMP280;37210;50.058;8.688;2023-08-07T11:55:57;100210.53;;;17.72
51149;BMP280;37210;50.058;8.688;2023-08-07T11:58:26;100217.84;;;17.93
51149;BMP280;37210;50.058;8.688;2023-08-07T12:00:55;100185.84;;;17.71
51149;BMP280;37210;50.058;8.688;2023-08-07T12:03:28;100217.09;;;17.58
51149;BMP280;37210;50.058;8.688;2023-08-07T12:05:59;100216.88;;;17.66
51149;BMP280;37210;50.058;8.688;2023-08-07T12:08:33;100210.72;;;17.66
51149;BMP280;37210;50.058;8.688;2023-08-07T12:11:02;100197.19;;;17.45
51149;BMP280;37210;50.058;8.688;2023-08-07T12:13:31;100230.81;;;18.02
51149;BMP280;37210;50.058;8.688;2023-08-07T12:16:01;100222.03;;;18.00
51149;BMP280;37210;50.058;8.688;2023-08-07T12:18:32;100233.97;;;18.13
51149;BMP280;37210;50.058;8.688;2023-08-07T12:21:01;100228.31;;;18.25
51149;BMP280;37210;50.058;8.688;2023-08-07T12:23:32;100232.34;;;18.36
51149;BMP280;37210;50.058;8.688;2023-08-07T12:26:01;100231.16;;;18.47
51149;BMP280;37210;50.058;8.688;2023-08-07T12:28:29;100230.53;;;18.66
51149;BMP280;37210;50.058;8.688;2023-08-07T12:30:57;100221.75;;;18.64
51149;BMP280;37210;50.058;8.688;2023-08-07T12:33:24;100189.19;;;18.87
51149;BMP280;37210;50.058;8.688;2023-08-07T12:35:53;100227.44;;;19.04
51149;BMP280;37210;50.058;8.688;2023-08-07T12:38:20;100236.16;;;19.08
51149;BMP280;37210;50.058;8.688;2023-08-07T12:40:48;100228.41;;;18.76
51149;BMP280;37210;50.058;8.688;2023-08-07T12:43:15;100218.19;;;19.16
51149;BMP280;37210;50.058;8.688;2023-08-07T12:45:43;100211.56;;;19.28
51149;BMP280;37210;50.058;8.688;2023-08-07T12:48:11;100217.19;;;19.68
51149;BMP280;37210;50.058;8.688;2023-08-07T12:50:39;100212.56;;;19.96
51149;BMP280;37210;50.058;8.688;2023-08-07T12:53:08;100179.94;;;19.71
51149;BMP280;37210;50.058;8.688;2023-08-07T12:55:36;100172.53;;;19.79
51149;BMP280;37210;50.058;8.688;2023-08-07T12:58:04;100224.81;;;20.00
51149;BMP280;37210;50.058;8.688;2023-08-07T13:00:31;100209.91;;;19.50
51149;BMP280;37210;50.058;8.688;2023-08-07T13:02:59;100163.19;;;18.96
51149;BMP280;37210;50.058;8.688;2023-08-07T13:05:28;100184.19;;;19.02
51149;BMP280;37210;50.058;8.688;2023-08-07T13:07:57;100158.06;;;18.67
51149;BMP280;37210;50.058;8.688;2023-08-07T13:10:26;100209.13;;;18.97
51149;BMP280;37210;50.058;8.688;2023-08-07T13:12:57;100156.88;;;19.00
51149;BMP280;37210;50.058;8.688;2023-08-07T13:15:24;100224.56;;;19.60
51149;BMP280;37210;50.058;8.688;2023-08-07T13:17:52;100232.88;;;19.97
51149;BMP280;37210;50.058;8.688;2023-08-07T13:20:19;100236.47;;;20.18
51149;BMP280;37210;50.058;8.688;2023-08-07T13:22:47;100226.44;;;20.26
51149;BMP280;37210;50.058;8.688;2023-08-07T13:25:14;100228.28;;;20.02
51149;BMP280;37210;50.058;8.688;2023-08-07T13:27:43;100227.59;;;20.42
51149;BMP280;37210;50.058;8.688;2023-08-07T13:30:11;100211.34;;;20.05
51149;BMP280;37210;50.058;8.688;2023-08-07T13:32:38;100221.22;;;20.46
51149;BMP280;37210;50.058;8.688;2023-08-07T13:35:07;100225.06;;;20.60
51149;BMP280;37210;50.058;8.688;2023-08-07T13:37:35;100205.72;;;20.35
51149;BMP280;37210;50.058;8.688;2023-08-07T13:40:05;100225.97;;;20.59
51149;BMP280;37210;50.058;8.688;2023-08-07T13:42:34;100225.56;;;20.48
51149;BMP280;37210;50.058;8.688;2023-08-07T13:45:03;100212.97;;;20.09
51149;BMP280;37210;50.058;8.688;2023-08-07T13:47:31;100203.97;;;20.34
51149;BMP280;37210;50.058;8.688;2023-08-07T13:49:58;100221.03;;;20.29
51149;BMP280;37210;50.058;8.688;2023-08-07T13:52:27;100222.78;;;20.07
51149;BMP280;37210;50.058;8.688;2023-08-07T13:54:54;100221.59;;;20.37
51149;BMP280;37210;50.058;8.688;2023-08-07T13:57:21;100224.38;;;20.55
51149;BMP280;37210;50.058;8.688;2023-08-07T13:59:49;100219.09;;;20.32
51149;BMP280;37210;50.058;8.688;2023-08-07T14:02:17;100227.06;;;20.32
51149;BMP280;37210;50.058;8.688;2023-08-07T14:04:45;100213.06;;;20.50
51149;BMP280;37210;50.058;8.688;2023-08-07T14:07:12;100201.50;;;20.51
51149;BMP280;37210;50.058;8.688;2023-08-07T14:09:39;100218.06;;;20.36
51149;BMP280;37210;50.058;8.688;2023-08-07T14:12:07;100218.25;;;20.32
51149;BMP280;37210;50.058;8.688;2023-08-07T14:14:35;100214.06;;;20.48